sensor_id;sensor_type;location;lat;lon;timestamp;P1;durP1;ratioP1;P2;durP2;ratioP2
59728;SDS011;45588;51.598;5.618;2023-06-10T00:01:17;11.23;;;10.03;;
59728;SDS011;45588;51.598;5.618;2023-06-10T00:03:42;11.05;;;10.05;;
59728;SDS011;45588;51.598;5.618;2023-06-10T00:06:08;10.80;;;9.82;;
59728;SDS011;45588;51.598;5.618;2023-06-10T00:08:33;11.17;;;10.13;;
59728;SDS011;45588;51.598;5.618;2023-06-10T00:10:58;11.53;;;10.47;;
59728;SDS011;45588;51.598;5.618;2023-06-10T00:13:23;11.37;;;10.27;;
59728;SDS011;45588;51.598;5.618;2023-06-10T00:15:49;12.83;;;10.27;;
59728;SDS011;45588;51.598;5.618;2023-06-10T00:18:14;12.80;;;10.60;;
59728;SDS011;45588;51.598;5.618;2023-06-10T00:20:39;11.60;;;10.52;;
59728;SDS011;45588;51.598;5.618;2023-06-10T00:23:04;10.75;;;9.77;;
59728;SDS011;45588;51.598;5.618;2023-06-10T00:25:31;12.50;;;11.27;;
59728;SDS011;45588;51.598;5.618;2023-06-10T00:27:58;11.13;;;10.23;;
59728;SDS011;45588;51.598;5.618;2023-06-10T00:30:23;11.37;;;10.23;;
59728;SDS011;45588;51.598;5.618;2023-06-10T00:32:48;12.30;;;10.53;;
59728;SDS011;45588;51.598;5.618;2023-06-10T00:35:13;11.90;;;10.90;;
59728;SDS011;45588;51.598;5.618;2023-06-10T00:37:38;12.10;;;10.57;;
59728;SDS011;45588;51.598;5.618;2023-06-10T00:40:04;12.03;;;10.93;;
59728;SDS011;45588;51.598;5.618;2023-06-10T00:42:29;12.38;;;11.27;;
59728;SDS011;45588;51.598;5.618;2023-06-10T00:44:54;12.73;;;11.52;;
59728;SDS011;45588;51.598;5.618;2023-06-10T00:47:20;12.88;;;11.77;;
59728;SDS011;45588;51.598;5.618;2023-06-10T00:49:45;13.45;;;12.18;;
59728;SDS011;45588;51.598;5.618;2023-06-10T00:52:11;15.10;;;12.75;;
59728;SDS011;45588;51.598;5.618;2023-06-10T00:54:39;13.93;;;12.70;;
59728;SDS011;45588;51.598;5.618;2023-06-10T00:57:04;13.60;;;12.40;;
59728;SDS011;45588;51.598;5.618;2023-06-10T00:59:30;14.45;;;13.07;;
59728;SDS011;45588;51.598;5.618;2023-06-10T01:01:58;14.70;;;13.25;;
59728;SDS011;45588;51.598;5.618;2023-06-10T01:04:23;14.50;;;13.30;;
59728;SDS011;45588;51.598;5.618;2023-06-10T01:07:05;14.57;;;13.27;;
59728;SDS011;45588;51.598;5.618;2023-06-10T01:10:09;14.07;;;12.63;;
59728;SDS011;45588;51.598;5.618;2023-06-10T01:15:14;14.43;;;12.93;;
59728;SDS011;45588;51.598;5.618;2023-06-10T01:17:56;13.23;;;9.25;;
59728;SDS011;45588;51.598;5.618;2023-06-10T01:20:22;11.95;;;10.75;;
59728;SDS011;45588;51.598;5.618;2023-06-10T01:22:49;14.20;;;12.90;;
59728;SDS011;45588;51.598;5.618;2023-06-10T01:25:15;14.57;;;13.30;;
59728;SDS011;45588;51.598;5.618;2023-06-10T01:27:40;15.60;;;14.02;;
59728;SDS011;45588;51.598;5.618;2023-06-10T01:30:08;14.00;;;12.52;;
59728;SDS011;45588;51.598;5.618;2023-06-10T01:32:40;14.85;;;13.55;;
59728;SDS011;45588;51.598;5.618;2023-06-10T01:35:08;15.10;;;13.70;;
59728;SDS011;45588;51.598;5.618;2023-06-10T01:37:34;22.13;;;15.27;;
59728;SDS011;45588;51.598;5.618;2023-06-10T01:40:01;16.15;;;14.57;;
59728;SDS011;45588;51.598;5.618;2023-06-10T01:42:30;13.77;;;10.23;;
59728;SDS011;45588;51.598;5.618;2023-06-10T01:44:56;14.98;;;13.65;;
59728;SDS011;45588;51.598;5.618;2023-06-10T01:47:21;14.15;;;12.95;;
59728;SDS011;45588;51.598;5.618;2023-06-10T01:49:46;15.23;;;10.82;;
59728;SDS011;45588;51.598;5.618;2023-06-10T01:52:12;15.40;;;14.07;;
59728;SDS011;45588;51.598;5.618;2023-06-10T01:54:37;15.43;;;10.52;;
59728;SDS011;45588;51.598;5.618;2023-06-10T01:57:02;15.90;;;14.30;;
59728;SDS011;45588;51.598;5.618;2023-06-10T01:59:27;15.38;;;14.02;;
59728;SDS011;45588;51.598;5.618;2023-06-10T02:01:52;15.03;;;13.57;;
59728;SDS011;45588;51.598;5.618;2023-06-10T02:04:18;16.98;;;15.30;;
59728;SDS011;45588;51.598;5.618;2023-06-10T02:06:43;12.20;;;10.88;;
59728;SDS011;45588;51.598;5.618;2023-06-10T02:09:08;16.87;;;15.30;;
59728;SDS011;45588;51.598;5.618;2023-06-10T02:11:34;16.08;;;14.77;;
59728;SDS011;45588;51.598;5.618;2023-06-10T02:13:59;14.82;;;11.35;;
59728;SDS011;45588;51.598;5.618;2023-06-10T02:16:24;13.30;;;11.20;;
59728;SDS011;45588;51.598;5.618;2023-06-10T02:18:50;14.18;;;11.10;;
59728;SDS011;45588;51.598;5.618;2023-06-10T02:21:15;16.27;;;14.90;;
59728;SDS011;45588;51.598;5.618;2023-06-10T02:23:40;18.02;;;16.27;;
59728;SDS011;45588;51.598;5.618;2023-06-10T02:26:05;15.85;;;14.30;;
59728;SDS011;45588;51.598;5.618;2023-06-10T02:28:31;18.58;;;15.68;;
59728;SDS011;45588;51.598;5.618;2023-06-10T02:30:56;14.43;;;12.40;;
59728;SDS011;45588;51.598;5.618;2023-06-10T02:33:22;13.63;;;12.23;;
59728;SDS011;45588;51.598;5.618;2023-06-10T02:35:48;19.63;;;17.80;;
59728;SDS011;45588;51.598;5.618;2023-06-10T02:38:13;19.13;;;17.37;;
59728;SDS011;45588;51.598;5.618;2023-06-10T02:40:38;19.47;;;17.33;;
59728;SDS011;45588;51.598;5.618;2023-06-10T02:43:03;18.65;;;14.73;;
59728;SDS011;45588;51.598;5.618;2023-06-10T02:45:29;15.25;;;13.02;;
59728;SDS011;45588;51.598;5.618;2023-06-10T02:47:54;15.57;;;13.98;;
59728;SDS011;45588;51.598;5.618;2023-06-10T02:50:19;21.23;;;19.00;;
59728;SDS011;45588;51.598;5.618;2023-06-10T02:52:44;20.50;;;18.52;;
59728;SDS011;45588;51.598;5.618;2023-06-10T02:55:10;17.50;;;13.25;;
59728;SDS011;45588;51.598;5.618;2023-06-10T02:57:35;18.38;;;14.05;;
59728;SDS011;45588;51.598;5.618;2023-06-10T03:00:00;19.53;;;17.77;;
59728;SDS011;45588;51.598;5.618;2023-06-10T03:02:26;20.98;;;19.30;;
59728;SDS011;45588;51.598;5.618;2023-06-10T03:04:54;19.70;;;17.90;;
59728;SDS011;45588;51.598;5.618;2023-06-10T03:07:20;20.77;;;18.55;;
59728;SDS011;45588;51.598;5.618;2023-06-10T03:09:45;14.60;;;13.07;;
59728;SDS011;45588;51.598;5.618;2023-06-10T03:12:10;21.93;;;19.90;;
59728;SDS011;45588;51.598;5.618;2023-06-10T03:14:35;20.17;;;18.17;;
59728;SDS011;45588;51.598;5.618;2023-06-10T03:17:02;20.38;;;18.55;;
59728;SDS011;45588;51.598;5.618;2023-06-10T03:19:28;18.15;;;13.70;;
59728;SDS011;45588;51.598;5.618;2023-06-10T03:22:14;20.05;;;13.98;;
59728;SDS011;45588;51.598;5.618;2023-06-10T03:24:38;18.25;;;13.73;;
59728;SDS011;45588;51.598;5.618;2023-06-10T03:27:08;20.65;;;18.65;;
59728;SDS011;45588;51.598;5.618;2023-06-10T03:29:34;19.98;;;18.25;;
59728;SDS011;45588;51.598;5.618;2023-06-10T03:31:59;17.98;;;13.88;;
59728;SDS011;45588;51.598;5.618;2023-06-10T03:34:25;19.52;;;17.58;;
59728;SDS011;45588;51.598;5.618;2023-06-10T03:36:50;16.53;;;12.73;;
59728;SDS011;45588;51.598;5.618;2023-06-10T03:39:15;14.73;;;12.63;;
59728;SDS011;45588;51.598;5.618;2023-06-10T03:41:40;17.92;;;13.95;;
59728;SDS011;45588;51.598;5.618;2023-06-10T03:44:06;19.13;;;17.40;;
59728;SDS011;45588;51.598;5.618;2023-06-10T03:46:31;15.40;;;12.47;;
59728;SDS011;45588;51.598;5.618;2023-06-10T03:48:56;15.73;;;13.17;;
59728;SDS011;45588;51.598;5.618;2023-06-10T03:51:21;15.07;;;11.93;;
59728;SDS011;45588;51.598;5.618;2023-06-10T03:53:46;18.17;;;16.67;;
59728;SDS011;45588;51.598;5.618;2023-06-10T03:56:11;19.67;;;17.77;;
59728;SDS011;45588;51.598;5.618;2023-06-10T03:58:37;17.65;;;16.13;;
59728;SDS011;45588;51.598;5.618;2023-06-10T04:01:02;18.70;;;17.00;;
59728;SDS011;45588;51.598;5.618;2023-06-10T04:03:27;18.67;;;17.07;;
59728;SDS011;45588;51.598;5.618;2023-06-10T04:05:53;15.82;;;14.20;;
59728;SDS011;45588;51.598;5.618;2023-06-10T04:08:19;14.15;;;12.48;;
59728;SDS011;45588;51.598;5.618;2023-06-10T04:10:45;13.93;;;11.95;;
59728;SDS011;45588;51.598;5.618;2023-06-10T04:13:10;16.73;;;15.30;;
59728;SDS011;45588;51.598;5.618;2023-06-10T04:15:35;16.00;;;11.90;;
59728;SDS011;45588;51.598;5.618;2023-06-10T04:18:01;16.58;;;15.02;;
59728;SDS011;45588;51.598;5.618;2023-06-10T04:20:26;16.40;;;15.00;;
59728;SDS011;45588;51.598;5.618;2023-06-10T04:22:52;16.33;;;14.75;;
59728;SDS011;45588;51.598;5.618;2023-06-10T04:25:17;16.67;;;15.00;;
59728;SDS011;45588;51.598;5.618;2023-06-10T04:27:43;16.33;;;14.83;;
59728;SDS011;45588;51.598;5.618;2023-06-10T04:30:08;16.05;;;14.50;;
59728;SDS011;45588;51.598;5.618;2023-06-10T04:32:33;16.40;;;14.98;;
59728;SDS011;45588;51.598;5.618;2023-06-10T04:34:59;13.33;;;11.73;;
59728;SDS011;45588;51.598;5.618;2023-06-10T04:37:25;18.33;;;14.45;;
59728;SDS011;45588;51.598;5.618;2023-06-10T04:39:50;15.20;;;13.67;;
59728;SDS011;45588;51.598;5.618;2023-06-10T04:42:15;14.93;;;13.53;;
59728;SDS011;45588;51.598;5.618;2023-06-10T04:44:40;15.57;;;14.00;;
59728;SDS011;45588;51.598;5.618;2023-06-10T04:47:05;14.80;;;13.40;;
59728;SDS011;45588;51.598;5.618;2023-06-10T04:49:32;16.08;;;14.40;;
59728;SDS011;45588;51.598;5.618;2023-06-10T04:51:58;15.75;;;14.27;;
59728;SDS011;45588;51.598;5.618;2023-06-10T04:54:24;16.30;;;14.48;;
59728;SDS011;45588;51.598;5.618;2023-06-10T04:56:50;15.02;;;13.43;;
59728;SDS011;45588;51.598;5.618;2023-06-10T04:59:15;16.20;;;14.50;;
59728;SDS011;45588;51.598;5.618;2023-06-10T05:01:40;16.60;;;14.20;;
59728;SDS011;45588;51.598;5.618;2023-06-10T05:04:05;16.60;;;14.93;;
59728;SDS011;45588;51.598;5.618;2023-06-10T05:06:30;14.90;;;13.53;;
59728;SDS011;45588;51.598;5.618;2023-06-10T05:08:56;15.67;;;14.07;;
59728;SDS011;45588;51.598;5.618;2023-06-10T05:11:21;16.23;;;14.47;;
59728;SDS011;45588;51.598;5.618;2023-06-10T05:13:47;12.93;;;10.82;;
59728;SDS011;45588;51.598;5.618;2023-06-10T05:16:12;15.80;;;14.33;;
59728;SDS011;45588;51.598;5.618;2023-06-10T05:18:37;18.07;;;14.87;;
59728;SDS011;45588;51.598;5.618;2023-06-10T05:21:02;16.87;;;15.20;;
59728;SDS011;45588;51.598;5.618;2023-06-10T05:23:27;16.67;;;15.10;;
59728;SDS011;45588;51.598;5.618;2023-06-10T05:25:52;13.37;;;10.77;;
59728;SDS011;45588;51.598;5.618;2023-06-10T05:28:18;16.67;;;14.50;;
59728;SDS011;45588;51.598;5.618;2023-06-10T05:30:43;16.05;;;14.45;;
59728;SDS011;45588;51.598;5.618;2023-06-10T05:33:08;16.17;;;14.70;;
59728;SDS011;45588;51.598;5.618;2023-06-10T05:35:33;15.57;;;13.97;;
59728;SDS011;45588;51.598;5.618;2023-06-10T05:37:58;17.33;;;14.80;;
59728;SDS011;45588;51.598;5.618;2023-06-10T05:40:23;16.27;;;14.67;;
59728;SDS011;45588;51.598;5.618;2023-06-10T05:42:49;16.50;;;14.90;;
59728;SDS011;45588;51.598;5.618;2023-06-10T05:45:14;17.77;;;15.52;;
59728;SDS011;45588;51.598;5.618;2023-06-10T05:47:39;17.52;;;15.70;;
59728;SDS011;45588;51.598;5.618;2023-06-10T05:50:05;21.08;;;15.20;;
59728;SDS011;45588;51.598;5.618;2023-06-10T05:52:34;16.35;;;9.98;;
59728;SDS011;45588;51.598;5.618;2023-06-10T05:54:59;14.73;;;11.40;;
59728;SDS011;45588;51.598;5.618;2023-06-10T05:57:25;18.63;;;14.55;;
59728;SDS011;45588;51.598;5.618;2023-06-10T05:59:51;15.85;;;13.82;;
59728;SDS011;45588;51.598;5.618;2023-06-10T06:02:16;15.57;;;13.83;;
59728;SDS011;45588;51.598;5.618;2023-06-10T06:04:41;15.97;;;14.37;;
59728;SDS011;45588;51.598;5.618;2023-06-10T06:07:06;17.47;;;14.20;;
59728;SDS011;45588;51.598;5.618;2023-06-10T06:09:31;16.25;;;14.13;;
59728;SDS011;45588;51.598;5.618;2023-06-10T06:11:56;16.27;;;14.67;;
59728;SDS011;45588;51.598;5.618;2023-06-10T06:14:22;15.40;;;14.10;;
59728;SDS011;45588;51.598;5.618;2023-06-10T06:16:47;16.67;;;14.98;;
59728;SDS011;45588;51.598;5.618;2023-06-10T06:19:12;15.70;;;14.10;;
59728;SDS011;45588;51.598;5.618;2023-06-10T06:21:37;14.45;;;13.00;;
59728;SDS011;45588;51.598;5.618;2023-06-10T06:24:02;16.60;;;14.00;;
59728;SDS011;45588;51.598;5.618;2023-06-10T06:26:27;17.70;;;12.57;;
59728;SDS011;45588;51.598;5.618;2023-06-10T06:28:53;13.82;;;12.38;;
59728;SDS011;45588;51.598;5.618;2023-06-10T06:31:18;14.18;;;12.77;;
59728;SDS011;45588;51.598;5.618;2023-06-10T06:33:43;14.00;;;12.70;;
59728;SDS011;45588;51.598;5.618;2023-06-10T06:36:08;50.05;;;15.65;;
59728;SDS011;45588;51.598;5.618;2023-06-10T06:38:34;16.27;;;12.38;;
59728;SDS011;45588;51.598;5.618;2023-06-10T06:40:59;22.93;;;12.50;;
59728;SDS011;45588;51.598;5.618;2023-06-10T06:43:28;13.30;;;11.90;;
59728;SDS011;45588;51.598;5.618;2023-06-10T06:45:53;15.90;;;12.85;;
59728;SDS011;45588;51.598;5.618;2023-06-10T06:48:18;13.90;;;12.40;;
59728;SDS011;45588;51.598;5.618;2023-06-10T06:50:43;14.60;;;13.07;;
59728;SDS011;45588;51.598;5.618;2023-06-10T06:53:08;14.13;;;12.80;;
59728;SDS011;45588;51.598;5.618;2023-06-10T06:55:33;14.67;;;13.17;;
59728;SDS011;45588;51.598;5.618;2023-06-10T06:57:59;15.47;;;14.00;;
59728;SDS011;45588;51.598;5.618;2023-06-10T07:00:27;16.23;;;12.60;;
59728;SDS011;45588;51.598;5.618;2023-06-10T07:02:52;14.07;;;12.57;;
59728;SDS011;45588;51.598;5.618;2023-06-10T07:05:18;14.20;;;12.77;;
59728;SDS011;45588;51.598;5.618;2023-06-10T07:07:43;17.83;;;13.20;;
59728;SDS011;45588;51.598;5.618;2023-06-10T07:10:08;13.83;;;12.47;;
59728;SDS011;45588;51.598;5.618;2023-06-10T07:12:33;14.17;;;12.23;;
59728;SDS011;45588;51.598;5.618;2023-06-10T07:14:58;13.90;;;12.40;;
59728;SDS011;45588;51.598;5.618;2023-06-10T07:17:23;14.13;;;12.50;;
59728;SDS011;45588;51.598;5.618;2023-06-10T07:19:49;19.33;;;12.00;;
59728;SDS011;45588;51.598;5.618;2023-06-10T07:22:14;13.05;;;11.75;;
59728;SDS011;45588;51.598;5.618;2023-06-10T07:24:39;15.02;;;12.18;;
59728;SDS011;45588;51.598;5.618;2023-06-10T07:27:05;12.88;;;11.63;;
59728;SDS011;45588;51.598;5.618;2023-06-10T07:29:30;12.90;;;11.60;;
59728;SDS011;45588;51.598;5.618;2023-06-10T07:31:56;13.93;;;12.57;;
59728;SDS011;45588;51.598;5.618;2023-06-10T07:34:21;12.87;;;11.67;;
59728;SDS011;45588;51.598;5.618;2023-06-10T07:36:46;13.13;;;11.83;;
59728;SDS011;45588;51.598;5.618;2023-06-10T07:39:11;17.53;;;11.80;;
59728;SDS011;45588;51.598;5.618;2023-06-10T07:41:36;14.70;;;12.27;;
59728;SDS011;45588;51.598;5.618;2023-06-10T07:44:01;13.87;;;12.40;;
59728;SDS011;45588;51.598;5.618;2023-06-10T07:46:27;12.90;;;11.68;;
59728;SDS011;45588;51.598;5.618;2023-06-10T07:48:53;13.23;;;10.50;;
59728;SDS011;45588;51.598;5.618;2023-06-10T07:51:18;19.52;;;12.05;;
59728;SDS011;45588;51.598;5.618;2023-06-10T07:53:43;15.65;;;11.65;;
59728;SDS011;45588;51.598;5.618;2023-06-10T07:56:09;13.15;;;11.43;;
59728;SDS011;45588;51.598;5.618;2023-06-10T07:58:34;11.95;;;10.77;;
59728;SDS011;45588;51.598;5.618;2023-06-10T08:00:59;14.45;;;12.05;;
59728;SDS011;45588;51.598;5.618;2023-06-10T08:03:24;13.97;;;12.00;;
59728;SDS011;45588;51.598;5.618;2023-06-10T08:05:49;14.00;;;12.13;;
59728;SDS011;45588;51.598;5.618;2023-06-10T08:08:14;14.83;;;12.13;;
59728;SDS011;45588;51.598;5.618;2023-06-10T08:10:40;14.03;;;12.07;;
59728;SDS011;45588;51.598;5.618;2023-06-10T08:13:05;11.70;;;10.48;;
59728;SDS011;45588;51.598;5.618;2023-06-10T08:15:31;11.98;;;9.85;;
59728;SDS011;45588;51.598;5.618;2023-06-10T08:17:56;10.87;;;9.63;;
59728;SDS011;45588;51.598;5.618;2023-06-10T08:20:24;12.85;;;10.40;;
59728;SDS011;45588;51.598;5.618;2023-06-10T08:22:49;14.55;;;11.23;;
59728;SDS011;45588;51.598;5.618;2023-06-10T08:25:15;12.57;;;11.27;;
59728;SDS011;45588;51.598;5.618;2023-06-10T08:27:40;12.18;;;10.73;;
59728;SDS011;45588;51.598;5.618;2023-06-10T08:30:05;10.80;;;9.90;;
59728;SDS011;45588;51.598;5.618;2023-06-10T08:32:31;11.85;;;10.65;;
59728;SDS011;45588;51.598;5.618;2023-06-10T08:34:56;12.40;;;9.87;;
59728;SDS011;45588;51.598;5.618;2023-06-10T08:37:21;14.00;;;9.80;;
59728;SDS011;45588;51.598;5.618;2023-06-10T08:39:47;11.57;;;10.02;;
59728;SDS011;45588;51.598;5.618;2023-06-10T08:42:25;10.50;;;9.40;;
59728;SDS011;45588;51.598;5.618;2023-06-10T08:47:18;11.48;;;8.75;;
59728;SDS011;45588;51.598;5.618;2023-06-10T08:49:46;14.32;;;9.50;;
59728;SDS011;45588;51.598;5.618;2023-06-10T08:52:16;16.75;;;10.45;;
59728;SDS011;45588;51.598;5.618;2023-06-10T08:54:42;10.63;;;9.48;;
59728;SDS011;45588;51.598;5.618;2023-06-10T08:57:08;11.88;;;8.95;;
59728;SDS011;45588;51.598;5.618;2023-06-10T08:59:34;10.25;;;9.13;;
59728;SDS011;45588;51.598;5.618;2023-06-10T09:01:59;9.75;;;8.85;;
59728;SDS011;45588;51.598;5.618;2023-06-10T09:04:25;10.75;;;8.55;;
59728;SDS011;45588;51.598;5.618;2023-06-10T09:06:51;9.80;;;8.75;;
59728;SDS011;45588;51.598;5.618;2023-06-10T09:09:17;11.73;;;9.70;;
59728;SDS011;45588;51.598;5.618;2023-06-10T09:11:42;16.80;;;8.80;;
59728;SDS011;45588;51.598;5.618;2023-06-10T09:14:08;12.40;;;8.82;;
59728;SDS011;45588;51.598;5.618;2023-06-10T09:16:33;10.37;;;8.37;;
59728;SDS011;45588;51.598;5.618;2023-06-10T09:18:58;10.05;;;8.68;;
59728;SDS011;45588;51.598;5.618;2023-06-10T09:21:23;9.50;;;8.20;;
59728;SDS011;45588;51.598;5.618;2023-06-10T09:23:50;11.50;;;9.18;;
59728;SDS011;45588;51.598;5.618;2023-06-10T09:26:15;14.20;;;9.10;;
59728;SDS011;45588;51.598;5.618;2023-06-10T09:29:22;10.32;;;9.25;;
59728;SDS011;45588;51.598;5.618;2023-06-10T09:31:29;14.70;;;8.05;;
59728;SDS011;45588;51.598;5.618;2023-06-10T09:33:55;11.55;;;8.60;;
59728;SDS011;45588;51.598;5.618;2023-06-10T09:36:29;10.82;;;8.35;;
59728;SDS011;45588;51.598;5.618;2023-06-10T09:38:56;12.52;;;8.63;;
59728;SDS011;45588;51.598;5.618;2023-06-10T09:41:21;10.50;;;9.43;;
59728;SDS011;45588;51.598;5.618;2023-06-10T09:43:46;10.17;;;8.40;;
59728;SDS011;45588;51.598;5.618;2023-06-10T09:46:14;12.38;;;8.70;;
59728;SDS011;45588;51.598;5.618;2023-06-10T09:48:40;10.70;;;8.55;;
59728;SDS011;45588;51.598;5.618;2023-06-10T09:51:08;13.30;;;9.05;;
59728;SDS011;45588;51.598;5.618;2023-06-10T09:53:33;11.88;;;9.75;;
59728;SDS011;45588;51.598;5.618;2023-06-10T09:55:59;12.20;;;8.85;;
59728;SDS011;45588;51.598;5.618;2023-06-10T10:01:18;12.98;;;8.38;;
59728;SDS011;45588;51.598;5.618;2023-06-10T10:03:47;9.33;;;8.43;;
59728;SDS011;45588;51.598;5.618;2023-06-10T10:06:13;13.18;;;9.38;;
59728;SDS011;45588;51.598;5.618;2023-06-10T10:08:39;10.02;;;8.45;;
59728;SDS011;45588;51.598;5.618;2023-06-10T10:11:04;9.80;;;8.50;;
59728;SDS011;45588;51.598;5.618;2023-06-10T10:13:29;9.33;;;8.30;;
59728;SDS011;45588;51.598;5.618;2023-06-10T10:15:56;9.63;;;8.27;;
59728;SDS011;45588;51.598;5.618;2023-06-10T10:18:24;14.15;;;8.15;;
59728;SDS011;45588;51.598;5.618;2023-06-10T10:20:53;8.85;;;7.40;;
59728;SDS011;45588;51.598;5.618;2023-06-10T10:23:28;14.70;;;9.52;;
59728;SDS011;45588;51.598;5.618;2023-06-10T10:25:54;10.40;;;9.27;;
59728;SDS011;45588;51.598;5.618;2023-06-10T10:28:21;9.63;;;8.50;;
59728;SDS011;45588;51.598;5.618;2023-06-10T10:30:49;12.75;;;8.88;;
59728;SDS011;45588;51.598;5.618;2023-06-10T10:33:18;10.30;;;9.07;;
59728;SDS011;45588;51.598;5.618;2023-06-10T10:35:44;14.82;;;10.13;;
59728;SDS011;45588;51.598;5.618;2023-06-10T10:38:10;9.20;;;8.15;;
59728;SDS011;45588;51.598;5.618;2023-06-10T10:40:36;10.40;;;9.10;;
59728;SDS011;45588;51.598;5.618;2023-06-10T10:43:01;9.38;;;8.13;;
59728;SDS011;45588;51.598;5.618;2023-06-10T10:45:27;10.55;;;8.07;;
59728;SDS011;45588;51.598;5.618;2023-06-10T10:47:53;9.15;;;8.25;;
59728;SDS011;45588;51.598;5.618;2023-06-10T10:50:20;10.68;;;8.18;;
59728;SDS011;45588;51.598;5.618;2023-06-10T10:52:50;12.57;;;8.48;;
59728;SDS011;45588;51.598;5.618;2023-06-10T10:55:16;9.02;;;8.10;;
59728;SDS011;45588;51.598;5.618;2023-06-10T10:57:41;10.47;;;8.53;;
59728;SDS011;45588;51.598;5.618;2023-06-10T11:00:06;9.83;;;7.77;;
59728;SDS011;45588;51.598;5.618;2023-06-10T11:02:33;9.45;;;8.50;;
59728;SDS011;45588;51.598;5.618;2023-06-10T11:04:59;10.15;;;8.05;;
59728;SDS011;45588;51.598;5.618;2023-06-10T11:07:25;10.63;;;8.20;;
59728;SDS011;45588;51.598;5.618;2023-06-10T11:10:00;8.45;;;7.75;;
59728;SDS011;45588;51.598;5.618;2023-06-10T11:12:26;8.65;;;7.78;;
59728;SDS011;45588;51.598;5.618;2023-06-10T11:15:03;10.73;;;8.02;;
59728;SDS011;45588;51.598;5.618;2023-06-10T11:17:29;9.27;;;7.85;;
59728;SDS011;45588;51.598;5.618;2023-06-10T11:19:54;8.20;;;7.37;;
59728;SDS011;45588;51.598;5.618;2023-06-10T11:22:23;8.23;;;7.53;;
59728;SDS011;45588;51.598;5.618;2023-06-10T11:24:51;10.47;;;7.90;;
59728;SDS011;45588;51.598;5.618;2023-06-10T11:27:22;9.70;;;8.07;;
59728;SDS011;45588;51.598;5.618;2023-06-10T11:32:31;9.27;;;7.43;;
59728;SDS011;45588;51.598;5.618;2023-06-10T11:34:56;8.93;;;7.97;;
59728;SDS011;45588;51.598;5.618;2023-06-10T11:37:22;9.52;;;8.60;;
59728;SDS011;45588;51.598;5.618;2023-06-10T11:39:47;8.87;;;7.90;;
59728;SDS011;45588;51.598;5.618;2023-06-10T11:42:16;16.38;;;8.75;;
59728;SDS011;45588;51.598;5.618;2023-06-10T11:44:47;12.45;;;8.27;;
59728;SDS011;45588;51.598;5.618;2023-06-10T11:47:12;8.65;;;7.75;;
59728;SDS011;45588;51.598;5.618;2023-06-10T11:49:38;9.05;;;8.05;;
59728;SDS011;45588;51.598;5.618;2023-06-10T11:52:04;10.03;;;7.70;;
59728;SDS011;45588;51.598;5.618;2023-06-10T11:54:29;10.23;;;8.02;;
59728;SDS011;45588;51.598;5.618;2023-06-10T11:56:57;9.82;;;7.40;;
59728;SDS011;45588;51.598;5.618;2023-06-10T11:59:22;9.77;;;7.53;;
59728;SDS011;45588;51.598;5.618;2023-06-10T12:01:51;8.43;;;7.15;;
59728;SDS011;45588;51.598;5.618;2023-06-10T12:04:16;8.83;;;7.87;;
59728;SDS011;45588;51.598;5.618;2023-06-10T12:06:44;9.50;;;7.75;;
59728;SDS011;45588;51.598;5.618;2023-06-10T12:11:42;8.75;;;7.90;;
59728;SDS011;45588;51.598;5.618;2023-06-10T12:14:08;8.98;;;7.63;;
59728;SDS011;45588;51.598;5.618;2023-06-10T12:16:34;10.82;;;8.25;;
59728;SDS011;45588;51.598;5.618;2023-06-10T12:19:02;11.00;;;7.85;;
59728;SDS011;45588;51.598;5.618;2023-06-10T12:21:28;9.55;;;7.70;;
59728;SDS011;45588;51.598;5.618;2023-06-10T12:24:07;8.35;;;7.55;;
59728;SDS011;45588;51.598;5.618;2023-06-10T12:26:39;9.00;;;7.35;;
59728;SDS011;45588;51.598;5.618;2023-06-10T12:31:54;8.57;;;7.75;;
59728;SDS011;45588;51.598;5.618;2023-06-10T12:34:19;8.13;;;7.40;;
59728;SDS011;45588;51.598;5.618;2023-06-10T12:36:48;12.38;;;7.53;;
59728;SDS011;45588;51.598;5.618;2023-06-10T12:39:13;7.93;;;7.22;;
59728;SDS011;45588;51.598;5.618;2023-06-10T12:41:38;9.00;;;7.13;;
59728;SDS011;45588;51.598;5.618;2023-06-10T12:44:04;9.47;;;8.47;;
59728;SDS011;45588;51.598;5.618;2023-06-10T12:46:35;8.95;;;7.93;;
59728;SDS011;45588;51.598;5.618;2023-06-10T12:49:00;10.13;;;7.97;;
59728;SDS011;45588;51.598;5.618;2023-06-10T12:51:26;11.67;;;7.70;;
59728;SDS011;45588;51.598;5.618;2023-06-10T12:53:51;7.67;;;6.90;;
59728;SDS011;45588;51.598;5.618;2023-06-10T12:56:17;9.40;;;7.50;;
59728;SDS011;45588;51.598;5.618;2023-06-10T12:58:42;7.90;;;7.00;;
59728;SDS011;45588;51.598;5.618;2023-06-10T13:01:07;8.93;;;8.03;;
59728;SDS011;45588;51.598;5.618;2023-06-10T13:03:32;9.00;;;8.00;;
59728;SDS011;45588;51.598;5.618;2023-06-10T13:05:58;8.17;;;7.47;;
59728;SDS011;45588;51.598;5.618;2023-06-10T13:08:23;8.80;;;8.00;;
59728;SDS011;45588;51.598;5.618;2023-06-10T13:10:48;8.03;;;6.80;;
59728;SDS011;45588;51.598;5.618;2023-06-10T13:13:13;8.95;;;8.05;;
59728;SDS011;45588;51.598;5.618;2023-06-10T13:15:39;12.73;;;8.07;;
59728;SDS011;45588;51.598;5.618;2023-06-10T13:18:05;8.75;;;7.57;;
59728;SDS011;45588;51.598;5.618;2023-06-10T13:20:30;8.13;;;7.33;;
59728;SDS011;45588;51.598;5.618;2023-06-10T13:22:55;8.52;;;7.40;;
59728;SDS011;45588;51.598;5.618;2023-06-10T13:25:21;11.83;;;8.10;;
59728;SDS011;45588;51.598;5.618;2023-06-10T13:27:46;10.43;;;8.20;;
59728;SDS011;45588;51.598;5.618;2023-06-10T13:30:12;8.02;;;7.05;;
59728;SDS011;45588;51.598;5.618;2023-06-10T13:32:37;8.20;;;7.43;;
59728;SDS011;45588;51.598;5.618;2023-06-10T13:35:03;10.43;;;7.90;;
59728;SDS011;45588;51.598;5.618;2023-06-10T13:37:28;11.30;;;8.75;;
59728;SDS011;45588;51.598;5.618;2023-06-10T13:39:53;11.07;;;8.07;;
59728;SDS011;45588;51.598;5.618;2023-06-10T13:42:19;9.45;;;7.97;;
59728;SDS011;45588;51.598;5.618;2023-06-10T13:44:44;12.65;;;8.40;;
59728;SDS011;45588;51.598;5.618;2023-06-10T13:47:10;8.75;;;7.32;;
59728;SDS011;45588;51.598;5.618;2023-06-10T13:49:35;7.37;;;6.67;;
59728;SDS011;45588;51.598;5.618;2023-06-10T13:52:01;10.48;;;7.90;;
59728;SDS011;45588;51.598;5.618;2023-06-10T13:54:26;9.18;;;8.10;;
59728;SDS011;45588;51.598;5.618;2023-06-10T13:56:52;8.48;;;7.40;;
59728;SDS011;45588;51.598;5.618;2023-06-10T13:59:18;10.27;;;7.55;;
59728;SDS011;45588;51.598;5.618;2023-06-10T14:01:43;9.27;;;7.53;;
59728;SDS011;45588;51.598;5.618;2023-06-10T14:04:08;10.83;;;8.43;;
59728;SDS011;45588;51.598;5.618;2023-06-10T14:06:34;8.80;;;8.00;;
59728;SDS011;45588;51.598;5.618;2023-06-10T14:08:59;11.53;;;8.63;;
59728;SDS011;45588;51.598;5.618;2023-06-10T14:11:24;8.80;;;7.95;;
59728;SDS011;45588;51.598;5.618;2023-06-10T14:13:49;11.70;;;8.73;;
59728;SDS011;45588;51.598;5.618;2023-06-10T14:16:15;9.07;;;8.20;;
59728;SDS011;45588;51.598;5.618;2023-06-10T14:18:40;24.03;;;8.97;;
59728;SDS011;45588;51.598;5.618;2023-06-10T14:21:05;9.43;;;7.78;;
59728;SDS011;45588;51.598;5.618;2023-06-10T14:23:30;8.25;;;7.32;;
59728;SDS011;45588;51.598;5.618;2023-06-10T14:25:55;9.17;;;7.77;;
59728;SDS011;45588;51.598;5.618;2023-06-10T14:28:20;15.33;;;8.23;;
59728;SDS011;45588;51.598;5.618;2023-06-10T14:30:46;7.97;;;7.17;;
59728;SDS011;45588;51.598;5.618;2023-06-10T14:33:11;7.90;;;7.10;;
59728;SDS011;45588;51.598;5.618;2023-06-10T14:35:36;9.30;;;7.80;;
59728;SDS011;45588;51.598;5.618;2023-06-10T14:38:01;18.63;;;7.88;;